sensor_id;sensor_type;location;lat;lon;timestamp;P1;durP1;ratioP1;P2;durP2;ratioP2
11931;SDS011;6025;51.368;6.788;2023-05-14T00:01:49;8.85;;;7.05;;
11931;SDS011;6025;51.368;6.788;2023-05-14T00:06:41;8.73;;;7.00;;
11931;SDS011;6025;51.368;6.788;2023-05-14T00:11:32;9.02;;;6.70;;
11931;SDS011;6025;51.368;6.788;2023-05-14T00:16:25;8.25;;;7.05;;
11931;SDS011;6025;51.368;6.788;2023-05-14T00:21:17;7.90;;;7.10;;
11931;SDS011;6025;51.368;6.788;2023-05-14T00:26:08;8.40;;;7.13;;
11931;SDS011;6025;51.368;6.788;2023-05-14T00:31:00;10.90;;;7.30;;
11931;SDS011;6025;51.368;6.788;2023-05-14T00:35:53;11.00;;;7.57;;
11931;SDS011;6025;51.368;6.788;2023-05-14T00:40:44;11.30;;;8.48;;
11931;SDS011;6025;51.368;6.788;2023-05-14T00:45:40;9.55;;;8.65;;
11931;SDS011;6025;51.368;6.788;2023-05-14T00:50:31;9.90;;;8.95;;
11931;SDS011;6025;51.368;6.788;2023-05-14T00:55:26;11.85;;;9.20;;
11931;SDS011;6025;51.368;6.788;2023-05-14T01:00:18;11.43;;;9.05;;
11931;SDS011;6025;51.368;6.788;2023-05-14T01:05:10;16.48;;;9.38;;
11931;SDS011;6025;51.368;6.788;2023-05-14T01:10:02;11.23;;;9.00;;
11931;SDS011;6025;51.368;6.788;2023-05-14T01:15:00;18.98;;;9.93;;
11931;SDS011;6025;51.368;6.788;2023-05-14T01:19:54;10.40;;;8.95;;
11931;SDS011;6025;51.368;6.788;2023-05-14T01:24:48;9.70;;;8.70;;
11931;SDS011;6025;51.368;6.788;2023-05-14T01:29:41;13.10;;;8.93;;
11931;SDS011;6025;51.368;6.788;2023-05-14T01:34:34;13.88;;;9.27;;
11931;SDS011;6025;51.368;6.788;2023-05-14T01:39:26;10.35;;;8.98;;
11931;SDS011;6025;51.368;6.788;2023-05-14T01:44:22;11.50;;;8.68;;
11931;SDS011;6025;51.368;6.788;2023-05-14T01:49:13;12.18;;;9.60;;
11931;SDS011;6025;51.368;6.788;2023-05-14T01:54:07;10.05;;;9.05;;
11931;SDS011;6025;51.368;6.788;2023-05-14T01:58:58;10.60;;;8.75;;
11931;SDS011;6025;51.368;6.788;2023-05-14T02:03:51;9.93;;;8.75;;
11931;SDS011;6025;51.368;6.788;2023-05-14T02:08:43;11.60;;;8.90;;
11931;SDS011;6025;51.368;6.788;2023-05-14T02:13:34;12.15;;;9.25;;
11931;SDS011;6025;51.368;6.788;2023-05-14T02:18:26;9.32;;;8.40;;
11931;SDS011;6025;51.368;6.788;2023-05-14T02:23:19;10.63;;;8.70;;
11931;SDS011;6025;51.368;6.788;2023-05-14T02:28:10;10.07;;;9.07;;
11931;SDS011;6025;51.368;6.788;2023-05-14T02:33:02;10.20;;;9.20;;
11931;SDS011;6025;51.368;6.788;2023-05-14T02:37:53;10.35;;;9.35;;
11931;SDS011;6025;51.368;6.788;2023-05-14T02:42:46;10.48;;;8.82;;
11931;SDS011;6025;51.368;6.788;2023-05-14T02:47:38;13.40;;;9.50;;
11931;SDS011;6025;51.368;6.788;2023-05-14T02:52:29;10.55;;;9.45;;
11931;SDS011;6025;51.368;6.788;2023-05-14T02:57:21;11.80;;;10.50;;
11931;SDS011;6025;51.368;6.788;2023-05-14T03:02:14;11.93;;;10.43;;
11931;SDS011;6025;51.368;6.788;2023-05-14T03:07:05;11.60;;;10.05;;
11931;SDS011;6025;51.368;6.788;2023-05-14T03:11:57;11.82;;;9.65;;
11931;SDS011;6025;51.368;6.788;2023-05-14T03:16:48;10.30;;;9.30;;
11931;SDS011;6025;51.368;6.788;2023-05-14T03:21:41;11.00;;;9.18;;
11931;SDS011;6025;51.368;6.788;2023-05-14T03:26:32;11.67;;;10.00;;
11931;SDS011;6025;51.368;6.788;2023-05-14T03:31:24;12.30;;;9.15;;
11931;SDS011;6025;51.368;6.788;2023-05-14T03:36:16;10.07;;;9.00;;
11931;SDS011;6025;51.368;6.788;2023-05-14T03:41:09;10.20;;;9.17;;
11931;SDS011;6025;51.368;6.788;2023-05-14T03:46:00;10.40;;;9.37;;
11931;SDS011;6025;51.368;6.788;2023-05-14T03:50:52;9.67;;;8.67;;
11931;SDS011;6025;51.368;6.788;2023-05-14T03:55:43;10.23;;;9.20;;
11931;SDS011;6025;51.368;6.788;2023-05-14T04:00:36;10.97;;;9.07;;
11931;SDS011;6025;51.368;6.788;2023-05-14T04:05:28;9.77;;;8.17;;
11931;SDS011;6025;51.368;6.788;2023-05-14T04:10:19;13.43;;;8.40;;
11931;SDS011;6025;51.368;6.788;2023-05-14T04:15:11;9.70;;;8.80;;
11931;SDS011;6025;51.368;6.788;2023-05-14T04:20:04;9.57;;;8.43;;
11931;SDS011;6025;51.368;6.788;2023-05-14T04:24:57;10.03;;;9.03;;
11931;SDS011;6025;51.368;6.788;2023-05-14T04:29:49;10.53;;;8.80;;
11931;SDS011;6025;51.368;6.788;2023-05-14T04:34:40;10.03;;;9.03;;
11931;SDS011;6025;51.368;6.788;2023-05-14T04:39:33;8.97;;;8.07;;
11931;SDS011;6025;51.368;6.788;2023-05-14T04:44:25;9.32;;;8.32;;
11931;SDS011;6025;51.368;6.788;2023-05-14T04:49:16;10.05;;;8.18;;
11931;SDS011;6025;51.368;6.788;2023-05-14T04:54:08;9.93;;;8.80;;
11931;SDS011;6025;51.368;6.788;2023-05-14T04:59:01;9.65;;;8.65;;
11931;SDS011;6025;51.368;6.788;2023-05-14T05:03:52;9.85;;;8.75;;
11931;SDS011;6025;51.368;6.788;2023-05-14T05:08:44;10.75;;;9.32;;
11931;SDS011;6025;51.368;6.788;2023-05-14T05:13:35;12.00;;;9.77;;
11931;SDS011;6025;51.368;6.788;2023-05-14T05:18:28;10.85;;;9.75;;
11931;SDS011;6025;51.368;6.788;2023-05-14T05:23:20;11.23;;;10.10;;
11931;SDS011;6025;51.368;6.788;2023-05-14T05:28:11;11.27;;;10.13;;
11931;SDS011;6025;51.368;6.788;2023-05-14T05:33:03;11.27;;;10.10;;
11931;SDS011;6025;51.368;6.788;2023-05-14T05:37:56;11.75;;;10.63;;
11931;SDS011;6025;51.368;6.788;2023-05-14T05:42:47;12.48;;;10.55;;
11931;SDS011;6025;51.368;6.788;2023-05-14T05:47:39;12.57;;;11.13;;
11931;SDS011;6025;51.368;6.788;2023-05-14T05:52:31;11.70;;;10.55;;
11931;SDS011;6025;51.368;6.788;2023-05-14T05:57:24;11.02;;;9.85;;
11931;SDS011;6025;51.368;6.788;2023-05-14T06:02:16;11.75;;;10.65;;
11931;SDS011;6025;51.368;6.788;2023-05-14T06:07:07;12.65;;;11.30;;
11931;SDS011;6025;51.368;6.788;2023-05-14T06:11:59;13.50;;;10.73;;
11931;SDS011;6025;51.368;6.788;2023-05-14T06:16:52;13.55;;;11.82;;
11931;SDS011;6025;51.368;6.788;2023-05-14T06:21:43;14.23;;;11.90;;
11931;SDS011;6025;51.368;6.788;2023-05-14T06:26:35;15.27;;;12.63;;
11931;SDS011;6025;51.368;6.788;2023-05-14T06:31:26;13.15;;;11.73;;
11931;SDS011;6025;51.368;6.788;2023-05-14T06:36:19;12.32;;;11.13;;
11931;SDS011;6025;51.368;6.788;2023-05-14T06:41:10;12.07;;;10.35;;
11931;SDS011;6025;51.368;6.788;2023-05-14T06:46:02;11.38;;;10.18;;
11931;SDS011;6025;51.368;6.788;2023-05-14T06:50:53;12.73;;;9.70;;
11931;SDS011;6025;51.368;6.788;2023-05-14T06:55:47;11.55;;;10.45;;
11931;SDS011;6025;51.368;6.788;2023-05-14T07:00:38;10.50;;;9.50;;
11931;SDS011;6025;51.368;6.788;2023-05-14T07:05:30;11.68;;;9.85;;
11931;SDS011;6025;51.368;6.788;2023-05-14T07:10:22;9.77;;;8.77;;
11931;SDS011;6025;51.368;6.788;2023-05-14T07:15:15;9.60;;;8.60;;
11931;SDS011;6025;51.368;6.788;2023-05-14T07:20:07;10.70;;;8.38;;
11931;SDS011;6025;51.368;6.788;2023-05-14T07:24:59;11.85;;;7.90;;
11931;SDS011;6025;51.368;6.788;2023-05-14T07:29:51;11.05;;;8.15;;
11931;SDS011;6025;51.368;6.788;2023-05-14T07:34:44;8.35;;;7.55;;
11931;SDS011;6025;51.368;6.788;2023-05-14T07:39:36;7.40;;;6.43;;
11931;SDS011;6025;51.368;6.788;2023-05-14T07:44:28;7.50;;;6.43;;
11931;SDS011;6025;51.368;6.788;2023-05-14T07:49:19;8.65;;;5.88;;
11931;SDS011;6025;51.368;6.788;2023-05-14T07:54:12;6.82;;;6.13;;
11931;SDS011;6025;51.368;6.788;2023-05-14T07:59:04;5.50;;;4.85;;
11931;SDS011;6025;51.368;6.788;2023-05-14T08:03:56;7.13;;;4.72;;
11931;SDS011;6025;51.368;6.788;2023-05-14T08:08:47;7.22;;;4.68;;
11931;SDS011;6025;51.368;6.788;2023-05-14T08:13:40;6.55;;;4.45;;
11931;SDS011;6025;51.368;6.788;2023-05-14T08:18:32;4.65;;;4.05;;
11931;SDS011;6025;51.368;6.788;2023-05-14T08:23:23;4.53;;;3.90;;
11931;SDS011;6025;51.368;6.788;2023-05-14T08:28:15;4.15;;;3.47;;
11931;SDS011;6025;51.368;6.788;2023-05-14T08:33:08;3.70;;;3.20;;
11931;SDS011;6025;51.368;6.788;2023-05-14T08:37:59;4.80;;;3.22;;
11931;SDS011;6025;51.368;6.788;2023-05-14T08:42:51;4.70;;;3.28;;
11931;SDS011;6025;51.368;6.788;2023-05-14T08:47:43;5.20;;;3.30;;
11931;SDS011;6025;51.368;6.788;2023-05-14T08:52:39;4.85;;;3.00;;
11931;SDS011;6025;51.368;6.788;2023-05-14T08:57:31;4.18;;;3.35;;
11931;SDS011;6025;51.368;6.788;2023-05-14T09:02:24;5.40;;;3.60;;
11931;SDS011;6025;51.368;6.788;2023-05-14T09:07:18;4.15;;;3.15;;
11931;SDS011;6025;51.368;6.788;2023-05-14T09:12:11;5.35;;;3.17;;
11931;SDS011;6025;51.368;6.788;2023-05-14T09:17:02;5.35;;;3.50;;
11931;SDS011;6025;51.368;6.788;2023-05-14T09:21:55;4.28;;;2.90;;
11931;SDS011;6025;51.368;6.788;2023-05-14T09:26:51;3.50;;;3.20;;
11931;SDS011;6025;51.368;6.788;2023-05-14T09:31:44;3.70;;;2.58;;
11931;SDS011;6025;51.368;6.788;2023-05-14T09:36:35;3.20;;;2.90;;
11931;SDS011;6025;51.368;6.788;2023-05-14T09:41:27;4.90;;;2.90;;
11931;SDS011;6025;51.368;6.788;2023-05-14T09:46:19;3.13;;;2.83;;
11931;SDS011;6025;51.368;6.788;2023-05-14T09:51:12;3.28;;;2.90;;
11931;SDS011;6025;51.368;6.788;2023-05-14T09:56:04;3.83;;;2.80;;
11931;SDS011;6025;51.368;6.788;2023-05-14T10:00:56;3.60;;;2.60;;
11931;SDS011;6025;51.368;6.788;2023-05-14T10:05:48;5.07;;;2.75;;
11931;SDS011;6025;51.368;6.788;2023-05-14T10:10:41;7.50;;;2.85;;
11931;SDS011;6025;51.368;6.788;2023-05-14T10:15:35;4.93;;;2.70;;
11931;SDS011;6025;51.368;6.788;2023-05-14T10:20:28;4.90;;;2.80;;
11931;SDS011;6025;51.368;6.788;2023-05-14T10:25:20;5.28;;;2.85;;
11931;SDS011;6025;51.368;6.788;2023-05-14T10:30:13;4.35;;;3.30;;
11931;SDS011;6025;51.368;6.788;2023-05-14T10:35:14;5.35;;;3.00;;
11931;SDS011;6025;51.368;6.788;2023-05-14T10:40:09;4.47;;;3.00;;
11931;SDS011;6025;51.368;6.788;2023-05-14T10:45:04;4.80;;;2.47;;
11931;SDS011;6025;51.368;6.788;2023-05-14T10:50:00;4.47;;;2.90;;
11931;SDS011;6025;51.368;6.788;2023-05-14T10:54:53;6.63;;;2.35;;
11931;SDS011;6025;51.368;6.788;2023-05-14T10:59:49;4.07;;;2.38;;
11931;SDS011;6025;51.368;6.788;2023-05-14T11:04:49;4.88;;;2.45;;
11931;SDS011;6025;51.368;6.788;2023-05-14T11:09:44;3.45;;;2.70;;
11931;SDS011;6025;51.368;6.788;2023-05-14T11:14:37;3.25;;;2.55;;
11931;SDS011;6025;51.368;6.788;2023-05-14T11:19:28;3.33;;;2.60;;
11931;SDS011;6025;51.368;6.788;2023-05-14T11:24:20;7.38;;;3.35;;
11931;SDS011;6025;51.368;6.788;2023-05-14T11:29:14;5.70;;;2.25;;
11931;SDS011;6025;51.368;6.788;2023-05-14T11:34:06;4.22;;;2.40;;
11931;SDS011;6025;51.368;6.788;2023-05-14T11:38:59;2.63;;;2.30;;
11931;SDS011;6025;51.368;6.788;2023-05-14T11:43:50;5.25;;;3.22;;
11931;SDS011;6025;51.368;6.788;2023-05-14T11:48:43;4.50;;;2.35;;
11931;SDS011;6025;51.368;6.788;2023-05-14T11:53:35;4.05;;;2.33;;
11931;SDS011;6025;51.368;6.788;2023-05-14T11:58:26;2.65;;;2.00;;
11931;SDS011;6025;51.368;6.788;2023-05-14T12:03:18;4.32;;;2.60;;
11931;SDS011;6025;51.368;6.788;2023-05-14T12:08:21;2.88;;;2.30;;
11931;SDS011;6025;51.368;6.788;2023-05-14T12:13:15;3.97;;;2.25;;
11931;SDS011;6025;51.368;6.788;2023-05-14T12:18:07;3.55;;;2.40;;
11931;SDS011;6025;51.368;6.788;2023-05-14T12:22:59;2.80;;;2.30;;
11931;SDS011;6025;51.368;6.788;2023-05-14T12:27:55;2.30;;;2.10;;
11931;SDS011;6025;51.368;6.788;2023-05-14T12:32:47;3.22;;;1.90;;
11931;SDS011;6025;51.368;6.788;2023-05-14T12:37:40;5.40;;;2.42;;
11931;SDS011;6025;51.368;6.788;2023-05-14T12:42:32;3.50;;;2.10;;
11931;SDS011;6025;51.368;6.788;2023-05-14T12:47:25;4.00;;;2.40;;
11931;SDS011;6025;51.368;6.788;2023-05-14T12:52:16;3.75;;;1.77;;
11931;SDS011;6025;51.368;6.788;2023-05-14T12:57:10;4.03;;;1.98;;
11931;SDS011;6025;51.368;6.788;2023-05-14T13:02:01;3.97;;;2.17;;
11931;SDS011;6025;51.368;6.788;2023-05-14T13:06:54;5.70;;;2.33;;
11931;SDS011;6025;51.368;6.788;2023-05-14T13:11:46;4.75;;;2.35;;
11931;SDS011;6025;51.368;6.788;2023-05-14T13:16:37;5.18;;;2.60;;
11931;SDS011;6025;51.368;6.788;2023-05-14T13:21:29;2.47;;;2.28;;
11931;SDS011;6025;51.368;6.788;2023-05-14T13:26:22;3.05;;;2.40;;
11931;SDS011;6025;51.368;6.788;2023-05-14T13:31:15;5.47;;;2.67;;
11931;SDS011;6025;51.368;6.788;2023-05-14T13:36:07;2.47;;;2.08;;
11931;SDS011;6025;51.368;6.788;2023-05-14T13:41:00;5.85;;;1.98;;
11931;SDS011;6025;51.368;6.788;2023-05-14T13:45:53;2.67;;;2.10;;
11931;SDS011;6025;51.368;6.788;2023-05-14T13:50:45;4.25;;;2.08;;
11931;SDS011;6025;51.368;6.788;2023-05-14T13:55:38;4.00;;;2.00;;
11931;SDS011;6025;51.368;6.788;2023-05-14T14:00:30;3.00;;;2.03;;
11931;SDS011;6025;51.368;6.788;2023-05-14T14:05:25;4.40;;;2.50;;
11931;SDS011;6025;51.368;6.788;2023-05-14T14:10:17;3.63;;;2.10;;
11931;SDS011;6025;51.368;6.788;2023-05-14T14:15:09;2.88;;;2.30;;
11931;SDS011;6025;51.368;6.788;2023-05-14T14:20:01;3.25;;;2.30;;
11931;SDS011;6025;51.368;6.788;2023-05-14T14:24:56;4.32;;;2.90;;
11931;SDS011;6025;51.368;6.788;2023-05-14T14:29:49;2.20;;;1.90;;
11931;SDS011;6025;51.368;6.788;2023-05-14T14:34:41;4.03;;;2.25;;
11931;SDS011;6025;51.368;6.788;2023-05-14T14:39:32;6.20;;;2.20;;
11931;SDS011;6025;51.368;6.788;2023-05-14T14:44:25;2.58;;;2.13;;
11931;SDS011;6025;51.368;6.788;2023-05-14T14:49:17;2.38;;;2.10;;
11931;SDS011;6025;51.368;6.788;2023-05-14T14:54:08;3.38;;;2.40;;
11931;SDS011;6025;51.368;6.788;2023-05-14T14:59:00;5.22;;;2.22;;
11931;SDS011;6025;51.368;6.788;2023-05-14T15:03:53;3.28;;;2.10;;
11931;SDS011;6025;51.368;6.788;2023-05-14T15:08:45;2.72;;;2.38;;
11931;SDS011;6025;51.368;6.788;2023-05-14T15:13:37;4.00;;;2.20;;
11931;SDS011;6025;51.368;6.788;2023-05-14T15:18:29;4.80;;;2.30;;
11931;SDS011;6025;51.368;6.788;2023-05-14T15:23:23;4.30;;;2.33;;
11931;SDS011;6025;51.368;6.788;2023-05-14T15:28:14;4.10;;;2.90;;
11931;SDS011;6025;51.368;6.788;2023-05-14T15:33:06;3.88;;;2.33;;
11931;SDS011;6025;51.368;6.788;2023-05-14T15:37:58;4.32;;;2.33;;
11931;SDS011;6025;51.368;6.788;2023-05-14T15:42:51;4.15;;;2.53;;
11931;SDS011;6025;51.368;6.788;2023-05-14T15:47:42;3.33;;;3.03;;
11931;SDS011;6025;51.368;6.788;2023-05-14T15:52:34;7.63;;;6.55;;
11931;SDS011;6025;51.368;6.788;2023-05-14T15:57:26;11.32;;;9.57;;
11931;SDS011;6025;51.368;6.788;2023-05-14T16:02:19;20.48;;;13.98;;
11931;SDS011;6025;51.368;6.788;2023-05-14T16:07:10;4.68;;;2.70;;
11931;SDS011;6025;51.368;6.788;2023-05-14T16:12:02;4.95;;;2.40;;
11931;SDS011;6025;51.368;6.788;2023-05-14T16:16:55;4.30;;;2.53;;
11931;SDS011;6025;51.368;6.788;2023-05-14T16:21:48;4.10;;;2.65;;
11931;SDS011;6025;51.368;6.788;2023-05-14T16:26:39;2.50;;;2.20;;
11931;SDS011;6025;51.368;6.788;2023-05-14T16:31:31;4.07;;;2.80;;
11931;SDS011;6025;51.368;6.788;2023-05-14T16:36:23;11.27;;;3.92;;
11931;SDS011;6025;51.368;6.788;2023-05-14T16:41:16;6.05;;;3.42;;
11931;SDS011;6025;51.368;6.788;2023-05-14T16:46:08;6.13;;;3.10;;
11931;SDS011;6025;51.368;6.788;2023-05-14T16:51:00;5.35;;;4.00;;
11931;SDS011;6025;51.368;6.788;2023-05-14T16:55:52;4.95;;;3.60;;
11931;SDS011;6025;51.368;6.788;2023-05-14T17:00:44;6.38;;;3.33;;
11931;SDS011;6025;51.368;6.788;2023-05-14T17:05:36;7.68;;;3.10;;
11931;SDS011;6025;51.368;6.788;2023-05-14T17:10:27;4.95;;;3.03;;
11931;SDS011;6025;51.368;6.788;2023-05-14T17:15:20;6.43;;;3.60;;
11931;SDS011;6025;51.368;6.788;2023-05-14T17:20:12;7.45;;;2.97;;
11931;SDS011;6025;51.368;6.788;2023-05-14T17:25:04;5.47;;;2.88;;
11931;SDS011;6025;51.368;6.788;2023-05-14T17:29:57;6.75;;;3.10;;
11931;SDS011;6025;51.368;6.788;2023-05-14T17:34:48;5.25;;;3.33;;
11931;SDS011;6025;51.368;6.788;2023-05-14T17:39:41;11.50;;;3.17;;
11931;SDS011;6025;51.368;6.788;2023-05-14T17:44:33;3.30;;;3.00;;
11931;SDS011;6025;51.368;6.788;2023-05-14T17:49:25;7.38;;;3.20;;
11931;SDS011;6025;51.368;6.788;2023-05-14T17:54:16;5.60;;;3.05;;
11931;SDS011;6025;51.368;6.788;2023-05-14T17:59:09;5.80;;;3.00;;
11931;SDS011;6025;51.368;6.788;2023-05-14T18:04:01;4.05;;;2.83;;
11931;SDS011;6025;51.368;6.788;2023-05-14T18:08:52;6.90;;;3.30;;
11931;SDS011;6025;51.368;6.788;2023-05-14T18:13:44;6.25;;;2.97;;
11931;SDS011;6025;51.368;6.788;2023-05-14T18:18:37;3.65;;;2.90;;
11931;SDS011;6025;51.368;6.788;2023-05-14T18:23:28;3.63;;;2.92;;
11931;SDS011;6025;51.368;6.788;2023-05-14T18:28:20;5.55;;;3.72;;
11931;SDS011;6025;51.368;6.788;2023-05-14T18:33:11;4.35;;;2.80;;
11931;SDS011;6025;51.368;6.788;2023-05-14T18:38:04;3.58;;;2.97;;
11931;SDS011;6025;51.368;6.788;2023-05-14T18:42:57;5.57;;;3.03;;
11931;SDS011;6025;51.368;6.788;2023-05-14T18:47:48;4.90;;;3.28;;
11931;SDS011;6025;51.368;6.788;2023-05-14T18:52:40;5.40;;;3.10;;
11931;SDS011;6025;51.368;6.788;2023-05-14T18:57:33;4.85;;;3.40;;
11931;SDS011;6025;51.368;6.788;2023-05-14T19:02:26;4.03;;;3.53;;
11931;SDS011;6025;51.368;6.788;2023-05-14T19:07:18;3.00;;;2.70;;
11931;SDS011;6025;51.368;6.788;2023-05-14T19:12:09;4.15;;;2.78;;
11931;SDS011;6025;51.368;6.788;2023-05-14T19:17:02;4.45;;;3.28;;
11931;SDS011;6025;51.368;6.788;2023-05-14T19:21:54;5.97;;;3.88;;
11931;SDS011;6025;51.368;6.788;2023-05-14T19:26:46;5.43;;;3.92;;
11931;SDS011;6025;51.368;6.788;2023-05-14T19:31:37;5.93;;;4.30;;
11931;SDS011;6025;51.368;6.788;2023-05-14T19:36:30;5.28;;;3.13;;
11931;SDS011;6025;51.368;6.788;2023-05-14T19:41:22;3.85;;;3.10;;
11931;SDS011;6025;51.368;6.788;2023-05-14T19:46:13;5.30;;;3.50;;
11931;SDS011;6025;51.368;6.788;2023-05-14T19:51:05;3.63;;;3.33;;
11931;SDS011;6025;51.368;6.788;2023-05-14T19:55:58;5.60;;;3.70;;
11931;SDS011;6025;51.368;6.788;2023-05-14T20:00:51;6.07;;;3.85;;
11931;SDS011;6025;51.368;6.788;2023-05-14T20:05:45;6.35;;;3.80;;
11931;SDS011;6025;51.368;6.788;2023-05-14T20:10:37;5.28;;;3.67;;
11931;SDS011;6025;51.368;6.788;2023-05-14T20:15:31;4.30;;;3.80;;
11931;SDS011;6025;51.368;6.788;2023-05-14T20:20:23;6.55;;;3.97;;
11931;SDS011;6025;51.368;6.788;2023-05-14T20:25:15;8.88;;;4.63;;
11931;SDS011;6025;51.368;6.788;2023-05-14T20:30:07;7.95;;;5.32;;
11931;SDS011;6025;51.368;6.788;2023-05-14T20:35:00;5.80;;;4.47;;
11931;SDS011;6025;51.368;6.788;2023-05-14T20:39:52;7.78;;;4.50;;
11931;SDS011;6025;51.368;6.788;2023-05-14T20:44:43;9.25;;;4.30;;
11931;SDS011;6025;51.368;6.788;2023-05-14T20:49:37;6.47;;;4.13;;
11931;SDS011;6025;51.368;6.788;2023-05-14T20:54:30;8.40;;;4.35;;
11931;SDS011;6025;51.368;6.788;2023-05-14T20:59:21;4.85;;;4.25;;
11931;SDS011;6025;51.368;6.788;2023-05-14T21:04:13;6.28;;;5.05;;
11931;SDS011;6025;51.368;6.788;2023-05-14T21:09:05;6.10;;;4.45;;
11931;SDS011;6025;51.368;6.788;2023-05-14T21:13:57;5.30;;;4.80;;
11931;SDS011;6025;51.368;6.788;2023-05-14T21:18:49;6.20;;;4.95;;
11931;SDS011;6025;51.368;6.788;2023-05-14T21:23:40;5.80;;;5.20;;
11931;SDS011;6025;51.368;6.788;2023-05-14T21:28:32;5.10;;;4.60;;
11931;SDS011;6025;51.368;6.788;2023-05-14T21:33:25;5.97;;;5.43;;
11931;SDS011;6025;51.368;6.788;2023-05-14T21:38:16;5.55;;;4.97;;
11931;SDS011;6025;51.368;6.788;2023-05-14T21:43:08;6.30;;;5.47;;
11931;SDS011;6025;51.368;6.788;2023-05-14T21:48:00;5.45;;;4.78;;
11931;SDS011;6025;51.368;6.788;2023-05-14T21:52:52;6.82;;;5.28;;
11931;SDS011;6025;51.368;6.788;2023-05-14T21:57:44;6.70;;;5.35;;
11931;SDS011;6025;51.368;6.788;2023-05-14T22:02:35;8.57;;;5.40;;
11931;SDS011;6025;51.368;6.788;2023-05-14T22:07:27;5.93;;;5.05;;
11931;SDS011;6025;51.368;6.788;2023-05-14T22:12:20;7.85;;;5.70;;
11931;SDS011;6025;51.368;6.788;2023-05-14T22:17:11;9.95;;;6.15;;
11931;SDS011;6025;51.368;6.788;2023-05-14T22:22:03;7.72;;;6.07;;
11931;SDS011;6025;51.368;6.788;2023-05-14T22:26:55;9.90;;;6.25;;
11931;SDS011;6025;51.368;6.788;2023-05-14T22:31:47;6.63;;;5.85;;
11931;SDS011;6025;51.368;6.788;2023-05-14T22:36:39;8.80;;;5.93;;
11931;SDS011;6025;51.368;6.788;2023-05-14T22:41:30;8.88;;;6.20;;
11931;SDS011;6025;51.368;6.788;2023-05-14T22:46:22;8.80;;;5.82;;
11931;SDS011;6025;51.368;6.788;2023-05-14T22:51:15;8.95;;;6.32;;
11931;SDS011;6025;51.368;6.788;2023-05-14T22:56:07;7.10;;;6.38;;
11931;SDS011;6025;51.368;6.788;2023-05-14T23:00:58;9.27;;;6.15;;
11931;SDS011;6025;51.368;6.788;2023-05-14T23:05:50;9.43;;;6.57;;
11931;SDS011;6025;51.368;6.788;2023-05-14T23:10:46;10.65;;;6.93;;
11931;SDS011;6025;51.368;6.788;2023-05-14T23:15:41;10.15;;;6.80;;
11931;SDS011;6025;51.368;6.788;2023-05-14T23:20:33;7.60;;;6.72;;
11931;SDS011;6025;51.368;6.788;2023-05-14T23:25:24;9.50;;;7.00;;
11931;SDS011;6025;51.368;6.788;2023-05-14T23:30:17;10.90;;;7.60;;
11931;SDS011;6025;51.368;6.788;2023-05-14T23:35:10;10.35;;;8.18;;
11931;SDS011;6025;51.368;6.788;2023-05-14T23:40:01;9.98;;;7.95;;
11931;SDS011;6025;51.368;6.788;2023-05-14T23:44:54;17.48;;;8.45;;
11931;SDS011;6025;51.368;6.788;2023-05-14T23:49:46;12.82;;;9.30;;
11931;SDS011;6025;51.368;6.788;2023-05-14T23:54:38;16.85;;;12.02;;
11931;SDS011;6025;51.368;6.788;2023-05-14T23:59:29;18.75;;;13.55;;
